createdAt,value
2023-01-04T00:01:50.978Z,2.70
2023-01-04T00:04:17.599Z,2.97
2023-01-04T00:06:44.208Z,2.93
2023-01-04T00:09:10.803Z,3.00
2023-01-04T00:11:37.420Z,2.50
2023-01-04T00:14:04.045Z,2.60
2023-01-04T00:16:30.787Z,3.00
2023-01-04T00:18:57.584Z,2.73
2023-01-04T00:21:25.654Z,2.67
2023-01-04T00:23:53.719Z,2.50
2023-01-04T00:26:22.285Z,2.80
2023-01-04T00:28:54.191Z,2.43
2023-01-04T00:31:21.620Z,2.47
2023-01-04T00:33:48.300Z,2.70
2023-01-04T00:36:14.969Z,2.20
2023-01-04T00:38:41.958Z,2.70
2023-01-04T00:41:18.892Z,3.10
2023-01-04T00:43:54.795Z,2.40
2023-01-04T00:46:21.511Z,3.07
2023-01-04T00:48:49.131Z,2.77
2023-01-04T00:51:15.831Z,2.57
2023-01-04T00:53:42.414Z,2.50
2023-01-04T00:56:09.013Z,2.43
2023-01-04T00:58:35.611Z,2.63
2023-01-04T01:01:08.372Z,2.30
2023-01-04T01:03:38.769Z,2.23
2023-01-04T01:06:06.638Z,2.40
2023-01-04T01:08:33.414Z,2.60
2023-01-04T01:11:07.741Z,2.87
2023-01-04T01:13:34.858Z,2.20
2023-01-04T01:16:10.003Z,2.90
2023-01-04T01:18:37.719Z,2.90
2023-01-04T01:21:05.818Z,2.77
2023-01-04T01:23:32.622Z,2.33
2023-01-04T01:26:03.455Z,2.43
2023-01-04T01:28:30.917Z,2.63
2023-01-04T01:31:02.463Z,2.43
2023-01-04T01:33:33.695Z,2.50
2023-01-04T01:36:02.018Z,2.60
2023-01-04T01:38:28.690Z,2.40
2023-01-04T01:40:55.293Z,2.00
2023-01-04T01:43:23.443Z,2.13
2023-01-04T01:45:51.634Z,2.40
2023-01-04T01:48:22.036Z,2.17
2023-01-04T01:50:54.105Z,2.40
2023-01-04T01:53:20.705Z,2.40
2023-01-04T01:55:47.291Z,2.60
2023-01-04T01:58:16.119Z,2.20
2023-01-04T02:00:42.728Z,2.30
2023-01-04T02:03:18.461Z,2.40
2023-01-04T02:05:45.490Z,2.60
2023-01-04T02:08:12.642Z,2.70
2023-01-04T02:10:39.281Z,2.33
2023-01-04T02:13:08.538Z,2.43
2023-01-04T02:15:48.348Z,2.47
2023-01-04T02:18:18.058Z,2.50
2023-01-04T02:20:47.136Z,2.17
2023-01-04T02:23:28.801Z,2.87
2023-01-04T02:26:30.716Z,2.27
2023-01-04T02:29:22.359Z,2.20
2023-01-04T02:31:53.159Z,2.30
2023-01-04T02:34:43.327Z,2.30
2023-01-04T02:37:13.567Z,2.40
2023-01-04T02:39:51.909Z,2.30
2023-01-04T02:42:25.128Z,2.20
2023-01-04T02:44:59.313Z,2.00
2023-01-04T02:47:54.431Z,2.30
2023-01-04T02:50:31.308Z,2.37
2023-01-04T02:53:13.306Z,2.10
2023-01-04T02:55:54.452Z,2.10
2023-01-04T02:58:32.748Z,2.23
2023-01-04T03:01:34.774Z,2.30
2023-01-04T03:04:30.591Z,2.40
2023-01-04T03:07:23.931Z,2.63
2023-01-04T03:09:50.953Z,2.00
2023-01-04T03:12:32.462Z,2.30
2023-01-04T03:15:24.096Z,1.80
2023-01-04T03:17:53.648Z,2.17
2023-01-04T03:20:20.490Z,1.90
2023-01-04T03:23:21.417Z,2.10
2023-01-04T03:26:08.935Z,1.93
2023-01-04T03:28:54.987Z,2.40
2023-01-04T03:31:45.188Z,2.03
2023-01-04T03:34:30.239Z,2.00
2023-01-04T03:37:06.048Z,2.00
2023-01-04T03:40:01.895Z,2.10
2023-01-04T03:42:51.397Z,2.17
2023-01-04T03:45:41.453Z,2.10
2023-01-04T03:48:48.365Z,2.00
2023-01-04T03:51:26.953Z,2.27
2023-01-04T03:54:11.930Z,2.10
2023-01-04T03:56:41.730Z,1.90
2023-01-04T03:59:08.886Z,2.30
2023-01-04T04:01:35.764Z,2.17
2023-01-04T04:04:20.943Z,2.07
2023-01-04T04:07:06.117Z,2.00
2023-01-04T04:09:32.788Z,2.10
2023-01-04T04:11:59.372Z,2.13
2023-01-04T04:14:26.066Z,1.80
2023-01-04T04:16:52.768Z,2.07
2023-01-04T04:19:19.439Z,1.73
2023-01-04T04:21:46.047Z,2.00
2023-01-04T04:24:24.361Z,2.00
2023-01-04T04:26:51.735Z,2.03
2023-01-04T04:29:18.399Z,2.07
2023-01-04T04:31:45.036Z,2.10
2023-01-04T04:34:11.715Z,1.90
2023-01-04T04:36:38.390Z,1.80
2023-01-04T04:39:05.047Z,2.10
2023-01-04T04:41:44.077Z,1.83
2023-01-04T04:44:12.302Z,2.27
2023-01-04T04:46:38.947Z,2.30
2023-01-04T04:49:05.570Z,1.93
2023-01-04T04:51:32.171Z,1.90
2023-01-04T04:53:58.779Z,2.13
2023-01-04T04:56:25.458Z,1.90
2023-01-04T04:58:52.044Z,1.83
2023-01-04T05:01:18.808Z,2.03
2023-01-04T05:03:45.579Z,1.90
2023-01-04T05:06:12.249Z,1.90
2023-01-04T05:08:38.856Z,2.00
2023-01-04T05:11:09.651Z,2.10
2023-01-04T05:13:36.273Z,1.90
2023-01-04T05:16:03.193Z,1.87
2023-01-04T05:18:29.886Z,1.97
2023-01-04T05:20:56.500Z,1.80
2023-01-04T05:23:23.116Z,2.00
2023-01-04T05:26:01.935Z,1.90
2023-01-04T05:28:28.545Z,1.70
2023-01-04T05:30:55.728Z,1.43
2023-01-04T05:33:27.434Z,2.17
2023-01-04T05:35:54.559Z,1.60
2023-01-04T05:38:21.380Z,1.73
2023-01-04T05:40:48.121Z,1.80
2023-01-04T05:43:15.180Z,1.83
2023-01-04T05:45:43.531Z,1.90
2023-01-04T05:48:10.278Z,1.80
2023-01-04T05:50:36.895Z,1.83
2023-01-04T05:53:03.588Z,1.37
2023-01-04T05:55:30.180Z,1.97
2023-01-04T05:57:56.770Z,2.10
2023-01-04T06:00:23.431Z,1.97
2023-01-04T06:02:52.367Z,2.27
2023-01-04T06:05:19.252Z,1.93
2023-01-04T06:07:45.849Z,1.90
2023-01-04T06:10:13.176Z,2.00
2023-01-04T06:12:39.947Z,1.90
2023-01-04T06:15:07.286Z,2.17
2023-01-04T06:17:34.103Z,2.20
2023-01-04T06:20:00.685Z,2.33
2023-01-04T06:22:27.884Z,2.10
2023-01-04T06:24:54.470Z,2.23
2023-01-04T06:27:21.148Z,2.20
2023-01-04T06:29:47.754Z,1.80
2023-01-04T06:32:14.356Z,1.53
2023-01-04T06:34:40.971Z,1.90
2023-01-04T06:37:07.648Z,2.00
2023-01-04T06:39:34.295Z,2.00
2023-01-04T06:42:06.216Z,2.00
2023-01-04T06:44:33.729Z,2.10
2023-01-04T06:47:00.331Z,1.87
2023-01-04T06:49:26.943Z,1.90
2023-01-04T06:51:53.536Z,2.17
2023-01-04T06:54:20.190Z,2.30
2023-01-04T06:56:46.808Z,1.87
2023-01-04T06:59:13.442Z,2.10
2023-01-04T07:01:40.143Z,1.77
2023-01-04T07:04:06.990Z,1.97
2023-01-04T07:06:33.620Z,2.17
2023-01-04T07:09:00.252Z,2.60
2023-01-04T07:11:26.869Z,2.00
2023-01-04T07:13:53.535Z,1.70
2023-01-04T07:16:20.473Z,1.70
2023-01-04T07:18:47.233Z,1.97
2023-01-04T07:21:14.078Z,1.73
2023-01-04T07:23:40.667Z,2.13
2023-01-04T07:26:07.265Z,1.70
2023-01-04T07:28:53.848Z,1.77
2023-01-04T07:31:20.523Z,2.13
2023-01-04T07:33:49.550Z,1.80
2023-01-04T07:36:16.143Z,1.60
2023-01-04T07:38:43.751Z,1.67
2023-01-04T07:41:10.358Z,1.67
2023-01-04T07:43:36.986Z,1.83
2023-01-04T07:46:03.607Z,1.90
2023-01-04T07:48:30.273Z,1.70
2023-01-04T07:50:56.902Z,1.80
2023-01-04T07:53:23.556Z,1.63
2023-01-04T07:55:55.777Z,1.83
2023-01-04T07:58:22.393Z,1.67
2023-01-04T08:00:49.057Z,2.17
2023-01-04T08:03:15.673Z,1.73
2023-01-04T08:05:42.441Z,1.77
2023-01-04T08:08:09.118Z,1.53
2023-01-04T08:10:36.197Z,1.70
2023-01-04T08:13:02.828Z,1.50
2023-01-04T08:15:29.533Z,1.63
2023-01-04T08:17:56.498Z,1.70
2023-01-04T08:20:23.103Z,1.73
2023-01-04T08:22:49.692Z,1.47
2023-01-04T08:25:16.297Z,1.70
2023-01-04T08:27:43.075Z,1.70
2023-01-04T08:30:10.031Z,1.50
2023-01-04T08:32:36.643Z,1.60
2023-01-04T08:35:03.401Z,1.43
2023-01-04T08:37:31.849Z,1.73
2023-01-04T08:39:58.467Z,1.60
2023-01-04T08:42:31.004Z,1.50
2023-01-04T08:45:00.693Z,1.37
2023-01-04T08:47:30.523Z,1.60
2023-01-04T08:49:57.317Z,1.57
2023-01-04T08:52:23.922Z,2.03
2023-01-04T08:54:50.532Z,1.80
2023-01-04T08:57:17.553Z,1.83
2023-01-04T08:59:44.264Z,1.50
2023-01-04T09:02:22.626Z,1.60
2023-01-04T09:04:49.796Z,1.70
2023-01-04T09:07:16.615Z,1.57
2023-01-04T09:09:43.277Z,1.60
2023-01-04T09:12:09.946Z,1.50
2023-01-04T09:14:36.553Z,1.73
2023-01-04T09:17:03.171Z,1.80
2023-01-04T09:19:29.773Z,1.57
2023-01-04T09:21:56.412Z,1.80
2023-01-04T09:24:23.003Z,1.80
2023-01-04T09:26:49.651Z,1.23
2023-01-04T09:29:16.252Z,1.33
2023-01-04T09:31:42.921Z,1.50
2023-01-04T09:34:15.199Z,1.30
2023-01-04T09:36:44.010Z,1.30
2023-01-04T09:39:16.743Z,1.50
2023-01-04T09:42:00.080Z,1.43
2023-01-04T09:47:41.785Z,1.50
2023-01-04T09:50:37.339Z,1.30
2023-01-04T09:53:19.509Z,1.17
2023-01-04T09:55:48.615Z,1.40
2023-01-04T09:58:29.923Z,1.43
2023-01-04T10:01:08.077Z,1.50
2023-01-04T10:03:39.017Z,1.33
2023-01-04T10:06:06.606Z,1.27
2023-01-04T10:08:33.396Z,1.30
2023-01-04T10:11:18.152Z,1.20
2023-01-04T10:14:11.826Z,1.23
2023-01-04T10:17:15.884Z,1.50
2023-01-04T10:22:57.379Z,1.10
2023-01-04T10:25:28.538Z,1.03
2023-01-04T10:28:00.901Z,1.40
2023-01-04T10:30:53.011Z,1.40
2023-01-04T10:33:29.255Z,1.00
2023-01-04T10:35:55.850Z,1.30
2023-01-04T10:38:28.102Z,1.20
2023-01-04T10:40:54.694Z,1.10
2023-01-04T10:44:10.572Z,1.60
2023-01-04T10:46:37.617Z,1.20
2023-01-04T10:49:13.950Z,1.20
2023-01-04T10:52:02.390Z,1.20
2023-01-04T10:54:34.181Z,1.10
2023-01-04T10:57:06.892Z,1.20
2023-01-04T10:59:42.338Z,1.20
2023-01-04T11:02:18.466Z,1.20
2023-01-04T11:04:46.920Z,0.90
2023-01-04T11:07:16.724Z,1.00
2023-01-04T11:09:52.805Z,1.10
2023-01-04T11:12:21.037Z,1.10
2023-01-04T11:14:48.282Z,1.20
2023-01-04T11:17:14.993Z,1.37
2023-01-04T11:19:41.706Z,1.10
2023-01-04T11:22:28.779Z,1.17
2023-01-04T11:25:33.700Z,1.17
2023-01-04T11:28:02.922Z,0.93
2023-01-04T11:30:32.949Z,1.10
2023-01-04T11:33:19.127Z,1.20
2023-01-04T11:35:48.335Z,1.00
2023-01-04T11:38:15.918Z,1.10
2023-01-04T11:40:42.827Z,1.00
2023-01-04T11:43:19.670Z,1.00
2023-01-04T11:46:00.023Z,1.00
2023-01-04T11:48:39.833Z,0.80
2023-01-04T11:51:15.342Z,0.90
2023-01-04T11:53:43.601Z,0.90
2023-01-04T11:56:20.125Z,0.80
2023-01-04T11:59:05.677Z,1.37
2023-01-04T12:01:34.217Z,0.80
2023-01-04T12:04:00.921Z,0.90
2023-01-04T12:06:42.550Z,1.10
2023-01-04T12:09:18.861Z,1.10
2023-01-04T12:11:50.945Z,1.20
2023-01-04T12:14:24.641Z,1.43
2023-01-04T12:17:12.160Z,1.10
2023-01-04T12:19:40.888Z,1.07
2023-01-04T12:22:21.327Z,0.80
2023-01-04T12:24:48.127Z,1.00
2023-01-04T12:27:14.801Z,0.90
2023-01-04T12:29:53.453Z,1.40
2023-01-04T12:32:19.983Z,1.37
2023-01-04T12:34:47.231Z,1.00
2023-01-04T12:37:45.948Z,1.50
2023-01-04T12:40:46.679Z,1.20
2023-01-04T12:43:16.511Z,1.33
2023-01-04T12:45:46.803Z,1.30
2023-01-04T12:48:47.441Z,1.40
2023-01-04T12:51:30.963Z,1.40
2023-01-04T12:54:06.170Z,1.30
2023-01-04T12:57:17.004Z,1.53
2023-01-04T12:59:59.818Z,1.47
2023-01-04T13:02:31.036Z,1.60
2023-01-04T13:07:56.359Z,1.50
2023-01-04T13:10:31.005Z,1.53
2023-01-04T13:13:03.341Z,1.60
2023-01-04T13:15:36.131Z,1.30
2023-01-04T13:18:02.715Z,1.60
2023-01-04T13:20:30.637Z,1.70
2023-01-04T13:22:58.152Z,1.70
2023-01-04T13:25:24.894Z,1.80
2023-01-04T13:27:55.885Z,1.87
2023-01-04T13:30:36.490Z,18.47
2023-01-04T13:33:29.316Z,43.60
2023-01-04T13:36:13.775Z,59.67
2023-01-04T13:38:40.356Z,46.43
2023-01-04T13:41:18.578Z,46.73
2023-01-04T13:43:48.384Z,42.53
2023-01-04T13:46:16.035Z,43.13
2023-01-04T13:48:44.248Z,42.13
2023-01-04T13:51:17.003Z,41.23
2023-01-04T13:53:55.188Z,39.23
2023-01-04T13:56:25.579Z,38.57
2023-01-04T13:58:52.220Z,37.57
2023-01-04T14:01:29.485Z,37.57
2023-01-04T14:03:56.268Z,37.10
2023-01-04T14:06:24.600Z,36.10
2023-01-04T14:09:01.780Z,27.17
2023-01-04T14:12:07.662Z,28.57
2023-01-04T14:14:34.818Z,27.37
2023-01-04T14:17:10.554Z,26.47
2023-01-04T14:20:06.189Z,28.37
2023-01-04T14:22:32.735Z,27.37
2023-01-04T14:25:15.306Z,27.17
2023-01-04T14:27:42.762Z,27.93
2023-01-04T14:30:18.482Z,26.50
2023-01-04T14:33:01.814Z,27.23
2023-01-04T14:35:29.130Z,27.13
2023-01-04T14:38:01.448Z,26.10
2023-01-04T14:40:29.132Z,26.27
2023-01-04T14:42:55.728Z,27.30
2023-01-04T14:45:22.319Z,25.30
2023-01-04T14:47:48.964Z,26.37
2023-01-04T14:50:15.925Z,26.10
2023-01-04T14:52:42.520Z,25.97
2023-01-04T14:58:03.718Z,25.73
2023-01-04T15:00:30.407Z,26.70
2023-01-04T15:02:57.170Z,24.87
2023-01-04T15:05:23.927Z,24.60
2023-01-04T15:07:50.642Z,25.63
2023-01-04T15:10:25.725Z,25.30
2023-01-04T15:12:52.929Z,23.60
2023-01-04T15:15:19.670Z,24.10
2023-01-04T15:17:46.433Z,22.87
2023-01-04T15:20:13.061Z,23.00
2023-01-04T15:22:39.861Z,23.93
2023-01-04T15:25:06.802Z,22.80
2023-01-04T15:27:38.363Z,23.13
2023-01-04T15:30:09.385Z,23.63
2023-01-04T15:32:36.530Z,22.90
2023-01-04T15:35:03.288Z,23.43
2023-01-04T15:37:29.893Z,23.27
2023-01-04T15:40:01.856Z,22.70
2023-01-04T15:42:47.565Z,23.13
2023-01-04T15:45:14.211Z,22.43
2023-01-04T15:47:40.813Z,22.07
2023-01-04T15:50:07.711Z,21.73
2023-01-04T15:52:34.321Z,20.30
2023-01-04T15:55:01.008Z,20.00
2023-01-04T15:57:27.592Z,17.93
2023-01-04T15:59:54.191Z,19.07
2023-01-04T16:02:20.962Z,20.23
2023-01-04T16:04:47.644Z,18.53
2023-01-04T16:07:14.239Z,18.50
2023-01-04T16:09:40.911Z,18.97
2023-01-04T16:12:26.468Z,18.33
2023-01-04T16:14:53.472Z,18.57
2023-01-04T16:17:20.073Z,18.13
2023-01-04T16:19:46.712Z,18.87
2023-01-04T16:22:13.341Z,18.90
2023-01-04T16:27:33.117Z,17.93
2023-01-04T16:30:03.125Z,19.00
2023-01-04T16:32:29.809Z,17.87
2023-01-04T16:34:56.645Z,18.53
2023-01-04T16:37:25.981Z,18.83
2023-01-04T16:40:09.887Z,17.53
2023-01-04T16:42:37.408Z,15.20
2023-01-04T16:45:04.293Z,12.27
2023-01-04T16:47:40.138Z,13.30
2023-01-04T16:50:07.170Z,10.77
2023-01-04T16:52:33.802Z,9.90
2023-01-04T16:55:00.443Z,9.03
2023-01-04T16:57:27.046Z,12.30
2023-01-04T16:59:53.667Z,11.53
2023-01-04T17:02:20.489Z,11.03
2023-01-04T17:04:52.791Z,10.53
2023-01-04T17:07:21.009Z,10.77
2023-01-04T17:09:49.139Z,9.60
2023-01-04T17:17:49.077Z,10.20
2023-01-04T17:20:15.741Z,10.57
2023-01-04T17:22:42.391Z,10.40
2023-01-04T17:25:09.020Z,11.07
2023-01-04T17:27:35.701Z,10.93
2023-01-04T17:30:02.858Z,10.70
2023-01-04T17:32:29.730Z,10.37
2023-01-04T17:34:57.991Z,9.97
2023-01-04T17:37:25.135Z,10.63
2023-01-04T17:39:52.000Z,11.77
2023-01-04T17:42:18.764Z,10.40
2023-01-04T17:44:46.004Z,11.20
2023-01-04T17:47:12.644Z,11.73
2023-01-04T17:49:39.259Z,10.27
2023-01-04T17:52:08.695Z,10.70
2023-01-04T17:54:35.707Z,10.37
2023-01-04T17:57:02.340Z,10.77
2023-01-04T17:59:28.955Z,9.97
2023-01-04T18:01:55.651Z,10.17
2023-01-04T18:04:22.350Z,9.67
2023-01-04T18:06:48.948Z,10.70
2023-01-04T18:09:20.139Z,9.77
2023-01-04T18:11:49.049Z,9.60
2023-01-04T18:14:15.721Z,10.57
2023-01-04T18:16:58.469Z,10.37
2023-01-04T18:19:26.483Z,10.43
2023-01-04T18:21:53.468Z,9.70
2023-01-04T18:24:37.400Z,9.77
2023-01-04T18:27:22.684Z,9.97
2023-01-04T18:29:51.516Z,9.40
2023-01-04T18:32:18.266Z,9.83
2023-01-04T18:34:44.968Z,10.10
2023-01-04T18:37:11.643Z,8.83
2023-01-04T18:39:38.231Z,9.77
2023-01-04T18:42:04.851Z,9.03
2023-01-04T18:44:34.025Z,9.50
2023-01-04T18:47:02.303Z,9.93
2023-01-04T18:49:29.250Z,9.33
2023-01-04T18:51:55.883Z,8.67
2023-01-04T18:54:22.541Z,9.30
2023-01-04T18:56:49.165Z,8.87
2023-01-04T18:59:18.803Z,8.83
2023-01-04T19:01:45.781Z,8.80
2023-01-04T19:04:12.929Z,8.80
2023-01-04T19:06:40.228Z,8.80
2023-01-04T19:09:07.398Z,8.43
2023-01-04T19:11:34.350Z,8.83
2023-01-04T19:14:01.001Z,9.00
2023-01-04T19:16:30.918Z,8.90
2023-01-04T19:18:58.766Z,9.20
2023-01-04T19:21:25.745Z,8.67
2023-01-04T19:23:52.638Z,8.77
2023-01-04T19:26:19.408Z,8.43
2023-01-04T19:28:46.036Z,9.03
2023-01-04T19:31:12.784Z,8.83
2023-01-04T19:33:39.516Z,8.90
2023-01-04T19:36:07.286Z,8.83
2023-01-04T19:38:33.991Z,8.73
2023-01-04T19:41:00.950Z,8.50
2023-01-04T19:43:27.588Z,8.93
2023-01-04T19:45:54.202Z,8.87
2023-01-04T19:48:23.359Z,8.33
2023-01-04T19:51:10.316Z,8.03
2023-01-04T19:53:37.229Z,7.77
2023-01-04T19:56:03.936Z,8.13
2023-01-04T19:58:30.609Z,8.10
2023-01-04T20:00:57.346Z,8.17
2023-01-04T20:03:25.956Z,8.57
2023-01-04T20:05:52.702Z,8.50
2023-01-04T20:08:19.480Z,7.93
2023-01-04T20:10:46.092Z,8.50
2023-01-04T20:13:12.774Z,8.00
2023-01-04T20:15:39.430Z,8.13
2023-01-04T20:18:13.413Z,8.13
2023-01-04T20:20:44.217Z,7.60
2023-01-04T20:23:11.097Z,7.80
2023-01-04T20:25:45.294Z,7.50
2023-01-04T20:28:11.900Z,7.93
2023-01-04T20:30:38.623Z,8.23
2023-01-04T20:33:05.717Z,7.33
2023-01-04T20:35:32.391Z,8.17
2023-01-04T20:37:59.021Z,7.63
2023-01-04T20:40:25.814Z,8.30
2023-01-04T20:43:11.228Z,7.60
2023-01-04T20:45:44.349Z,7.70
2023-01-04T20:48:11.125Z,7.67
2023-01-04T20:50:37.729Z,7.47
2023-01-04T20:53:04.550Z,8.00
2023-01-04T20:55:31.175Z,7.40
2023-01-04T20:57:57.755Z,7.90
2023-01-04T21:00:24.482Z,7.77
2023-01-04T21:02:51.208Z,8.03
2023-01-04T21:05:18.107Z,7.63
2023-01-04T21:07:44.709Z,7.47
2023-01-04T21:10:11.301Z,7.43
2023-01-04T21:12:38.705Z,8.30
2023-01-04T21:15:06.597Z,7.60
2023-01-04T21:17:33.194Z,7.47
2023-01-04T21:19:59.807Z,8.47
2023-01-04T21:22:26.815Z,7.73
2023-01-04T21:24:53.501Z,7.37
2023-01-04T21:27:20.089Z,7.80
2023-01-04T21:29:46.709Z,11.13
2023-01-04T21:32:13.324Z,8.70
2023-01-04T21:34:39.928Z,8.37
2023-01-04T21:37:06.520Z,8.23
2023-01-04T21:39:33.266Z,8.47
2023-01-04T21:41:59.880Z,8.07
2023-01-04T21:44:26.525Z,8.90
2023-01-04T21:46:53.174Z,8.20
2023-01-04T21:49:20.062Z,9.10
2023-01-04T21:51:46.659Z,7.90
2023-01-04T21:54:13.567Z,8.47
2023-01-04T21:56:40.179Z,8.63
2023-01-04T21:59:06.786Z,8.77
2023-01-04T22:01:35.477Z,8.67
2023-01-04T22:04:02.878Z,8.67
2023-01-04T22:06:29.699Z,8.07
2023-01-04T22:08:56.278Z,7.53
2023-01-04T22:11:22.879Z,7.47
2023-01-04T22:13:50.497Z,8.30
2023-01-04T22:16:17.275Z,8.03
2023-01-04T22:18:48.193Z,8.40
2023-01-04T22:21:15.859Z,8.30
2023-01-04T22:23:42.465Z,7.93
2023-01-04T22:26:09.225Z,7.73
2023-01-04T22:28:37.246Z,7.63
2023-01-04T22:31:07.260Z,8.70
2023-01-04T22:33:36.865Z,7.47
2023-01-04T22:36:17.168Z,7.97
2023-01-04T22:38:48.173Z,7.70
2023-01-04T22:41:16.153Z,7.70
2023-01-04T22:43:43.344Z,8.23
2023-01-04T22:46:13.158Z,7.63
2023-01-04T22:48:39.812Z,8.13
2023-01-04T22:51:07.830Z,7.33
2023-01-04T22:53:34.594Z,8.43
2023-01-04T22:56:23.440Z,8.10
2023-01-04T22:58:53.922Z,7.27
2023-01-04T23:01:26.568Z,7.00
2023-01-04T23:03:54.404Z,7.80
2023-01-04T23:06:21.331Z,7.73
2023-01-04T23:08:48.585Z,7.60
2023-01-04T23:11:16.812Z,7.40
2023-01-04T23:13:43.643Z,8.23
2023-01-04T23:16:12.126Z,7.70
2023-01-04T23:18:38.891Z,7.00
2023-01-04T23:21:05.617Z,7.00
2023-01-04T23:23:32.457Z,8.00
2023-01-04T23:26:13.366Z,7.27
2023-01-04T23:28:40.044Z,6.87
2023-01-04T23:31:07.908Z,7.30
2023-01-04T23:33:36.800Z,7.13
2023-01-04T23:36:17.334Z,7.33
2023-01-04T23:38:44.385Z,7.57
2023-01-04T23:41:11.267Z,7.40
2023-01-04T23:43:38.325Z,7.90
2023-01-04T23:48:35.928Z,7.60
2023-01-04T23:51:02.546Z,7.77
2023-01-04T23:53:29.130Z,7.60
2023-01-04T23:55:57.800Z,7.50
2023-01-04T23:58:25.202Z,7.47
